createdAt,value
2018-12-27T00:01:18.281Z,17.77
2018-12-27T00:03:46.789Z,19.03
2018-12-27T00:06:15.276Z,17.83
2018-12-27T00:08:43.785Z,17.87
2018-12-27T00:11:12.342Z,17.07
2018-12-27T00:13:40.853Z,18.83
2018-12-27T00:16:09.350Z,17.70
2018-12-27T00:18:37.930Z,17.57
2018-12-27T00:21:06.523Z,18.50
2018-12-27T00:23:35.073Z,18.87
2018-12-27T00:26:03.661Z,19.60
2018-12-27T00:28:32.240Z,18.17
2018-12-27T00:31:00.969Z,18.90
2018-12-27T00:33:29.700Z,17.90
2018-12-27T00:35:58.341Z,18.57
2018-12-27T00:38:27.069Z,18.10
2018-12-27T00:40:55.736Z,18.17
2018-12-27T00:43:24.460Z,18.97
2018-12-27T00:45:53.191Z,19.23
2018-12-27T00:48:21.913Z,16.80
2018-12-27T00:50:50.589Z,18.13
2018-12-27T00:53:19.290Z,17.63
2018-12-27T00:55:48.034Z,17.80
2018-12-27T00:58:16.749Z,18.90
2018-12-27T01:00:45.412Z,17.97
2018-12-27T01:03:14.125Z,17.63
2018-12-27T01:05:42.882Z,17.70
2018-12-27T01:08:11.521Z,17.90
2018-12-27T01:10:40.186Z,17.53
2018-12-27T01:13:08.972Z,17.97
2018-12-27T01:15:37.632Z,17.70
2018-12-27T01:18:06.279Z,16.83
2018-12-27T01:20:34.940Z,18.07
2018-12-27T01:23:03.660Z,17.83
2018-12-27T01:25:32.334Z,17.67
2018-12-27T01:28:00.975Z,16.03
2018-12-27T01:30:29.642Z,17.27
2018-12-27T01:32:58.353Z,17.13
2018-12-27T01:35:27.021Z,18.50
2018-12-27T01:37:55.746Z,17.27
2018-12-27T01:40:24.481Z,17.23
2018-12-27T01:42:53.129Z,17.23
2018-12-27T01:45:21.797Z,15.80
2018-12-27T01:47:50.525Z,16.90
2018-12-27T01:50:19.234Z,16.37
2018-12-27T01:52:47.949Z,16.57
2018-12-27T01:55:16.677Z,17.70
2018-12-27T01:57:45.340Z,16.40
2018-12-27T02:00:14.056Z,17.00
2018-12-27T02:02:42.722Z,17.97
2018-12-27T02:05:11.356Z,16.97
2018-12-27T02:07:40.024Z,16.30
2018-12-27T02:10:08.666Z,16.57
2018-12-27T02:12:37.324Z,16.73
2018-12-27T02:15:05.974Z,17.80
2018-12-27T02:17:34.708Z,16.67
2018-12-27T02:20:03.435Z,16.40
2018-12-27T02:22:32.170Z,16.53
2018-12-27T02:25:00.895Z,16.10
2018-12-27T02:27:29.621Z,15.70
2018-12-27T02:29:58.289Z,15.93
2018-12-27T02:32:26.962Z,16.37
2018-12-27T02:34:55.673Z,15.70
2018-12-27T02:37:24.410Z,15.23
2018-12-27T02:39:53.130Z,16.20
2018-12-27T02:42:21.865Z,16.00
2018-12-27T02:44:50.581Z,15.97
2018-12-27T02:47:19.398Z,16.37
2018-12-27T02:49:48.113Z,16.53
2018-12-27T02:52:16.766Z,16.10
2018-12-27T02:54:45.437Z,15.63
2018-12-27T02:57:14.153Z,16.80
2018-12-27T02:59:42.815Z,17.13
2018-12-27T03:02:11.527Z,17.00
2018-12-27T03:04:40.270Z,16.23
2018-12-27T03:07:09.004Z,17.57
2018-12-27T03:09:37.717Z,16.93
2018-12-27T03:12:06.427Z,16.93
2018-12-27T03:14:35.090Z,17.13
2018-12-27T03:17:03.980Z,17.37
2018-12-27T03:19:32.710Z,17.47
2018-12-27T03:22:01.355Z,16.40
2018-12-27T03:24:30.097Z,17.03
2018-12-27T03:26:58.749Z,17.13
2018-12-27T03:29:27.482Z,17.80
2018-12-27T03:31:56.206Z,18.33
2018-12-27T03:34:24.953Z,18.30
2018-12-27T03:36:53.673Z,19.40
2018-12-27T03:39:22.344Z,17.37
2018-12-27T03:41:51.108Z,18.20
2018-12-27T03:44:19.794Z,17.90
2018-12-27T03:46:48.504Z,17.83
2018-12-27T03:49:17.170Z,17.80
2018-12-27T03:51:45.894Z,16.43
2018-12-27T03:54:14.614Z,17.83
2018-12-27T03:56:43.378Z,16.70
2018-12-27T03:59:12.109Z,18.73
2018-12-27T04:01:40.773Z,16.93
2018-12-27T04:04:09.493Z,17.57
2018-12-27T04:06:38.167Z,17.13
2018-12-27T04:09:06.887Z,17.90
2018-12-27T04:11:35.634Z,18.10
2018-12-27T04:14:04.289Z,17.27
2018-12-27T04:16:32.869Z,17.40
2018-12-27T04:19:01.433Z,16.83
2018-12-27T04:21:30.033Z,17.73
2018-12-27T04:23:58.659Z,16.97
2018-12-27T04:26:28.220Z,16.80
2018-12-27T04:28:56.772Z,17.07
2018-12-27T04:31:25.728Z,16.50
2018-12-27T04:33:54.811Z,17.27
2018-12-27T04:36:24.059Z,16.03
2018-12-27T04:38:52.553Z,16.30
2018-12-27T04:41:21.373Z,18.03
2018-12-27T04:43:50.402Z,15.07
2018-12-27T04:46:18.983Z,15.33
2018-12-27T04:48:47.553Z,15.63
2018-12-27T04:51:16.044Z,16.70
2018-12-27T04:53:44.626Z,15.80
2018-12-27T04:56:13.208Z,17.37
2018-12-27T04:58:41.791Z,16.43
2018-12-27T05:01:10.369Z,15.90
2018-12-27T05:03:38.951Z,15.07
2018-12-27T05:06:07.510Z,16.00
2018-12-27T05:08:36.022Z,16.57
2018-12-27T05:11:04.504Z,15.10
2018-12-27T05:13:33.093Z,16.03
2018-12-27T05:16:01.661Z,16.33
2018-12-27T05:18:30.260Z,17.43
2018-12-27T05:20:58.825Z,16.40
2018-12-27T05:23:27.410Z,15.90
2018-12-27T05:25:56.059Z,15.83
2018-12-27T05:28:24.557Z,14.23
2018-12-27T05:30:53.122Z,15.10
2018-12-27T05:33:21.706Z,16.17
2018-12-27T05:35:50.202Z,15.80
2018-12-27T05:38:18.713Z,16.93
2018-12-27T05:40:47.203Z,16.27
2018-12-27T05:43:15.791Z,16.07
2018-12-27T05:45:44.341Z,16.93
2018-12-27T05:48:12.922Z,16.07
2018-12-27T05:50:41.417Z,15.43
2018-12-27T05:53:09.907Z,16.27
2018-12-27T05:55:38.485Z,15.63
2018-12-27T05:58:07.033Z,16.73
2018-12-27T06:00:35.556Z,16.67
2018-12-27T06:03:04.050Z,17.03
2018-12-27T06:05:33.209Z,16.90
2018-12-27T06:08:01.699Z,16.80
2018-12-27T06:10:30.277Z,16.50
2018-12-27T06:12:58.848Z,16.53
2018-12-27T06:15:27.416Z,17.53
2018-12-27T06:17:55.911Z,16.90
2018-12-27T06:20:24.514Z,15.83
2018-12-27T06:22:53.093Z,15.77
2018-12-27T06:25:21.606Z,16.83
2018-12-27T06:27:50.162Z,16.37
2018-12-27T06:30:18.671Z,16.70
2018-12-27T06:32:47.235Z,17.33
2018-12-27T06:35:15.846Z,16.63
2018-12-27T06:37:44.413Z,16.93
2018-12-27T06:40:12.996Z,17.13
2018-12-27T06:42:41.553Z,15.63
2018-12-27T06:45:10.141Z,16.80
2018-12-27T06:47:38.700Z,15.53
2018-12-27T06:50:07.206Z,16.13
2018-12-27T06:52:35.689Z,16.67
2018-12-27T06:55:04.268Z,16.47
2018-12-27T06:57:32.757Z,16.20
2018-12-27T07:00:01.345Z,16.13
2018-12-27T07:02:29.922Z,16.63
2018-12-27T07:04:58.501Z,15.67
2018-12-27T07:07:27.073Z,16.33
2018-12-27T07:09:55.569Z,15.97
2018-12-27T07:12:24.156Z,16.70
2018-12-27T07:14:52.721Z,15.93
2018-12-27T07:17:21.231Z,16.90
2018-12-27T07:19:49.718Z,15.73
2018-12-27T07:22:18.325Z,16.70
2018-12-27T07:24:46.886Z,15.43
2018-12-27T07:27:15.390Z,16.27
2018-12-27T07:29:43.959Z,16.03
2018-12-27T07:32:12.547Z,15.17
2018-12-27T07:34:41.109Z,16.40
2018-12-27T07:37:09.621Z,15.83
2018-12-27T07:39:38.181Z,17.27
2018-12-27T07:42:06.710Z,16.27
2018-12-27T07:44:35.269Z,15.43
2018-12-27T07:47:03.783Z,16.13
2018-12-27T07:49:32.334Z,15.87
2018-12-27T07:52:00.839Z,16.77
2018-12-27T07:54:29.421Z,16.17
2018-12-27T07:56:58.001Z,15.90
2018-12-27T07:59:26.502Z,16.53
2018-12-27T08:01:55.074Z,17.10
2018-12-27T08:04:23.569Z,15.60
2018-12-27T08:06:52.077Z,15.70
2018-12-27T08:09:20.565Z,16.37
2018-12-27T08:11:49.055Z,16.83
2018-12-27T08:14:17.661Z,16.27
2018-12-27T08:16:46.222Z,14.93
2018-12-27T08:19:14.805Z,15.90
2018-12-27T08:21:43.306Z,16.63
2018-12-27T08:24:11.894Z,15.63
2018-12-27T08:26:40.455Z,16.43
2018-12-27T08:29:09.038Z,16.17
2018-12-27T08:31:37.601Z,16.20
2018-12-27T08:34:06.182Z,16.07
2018-12-27T08:36:34.740Z,15.90
2018-12-27T08:39:03.992Z,15.63
2018-12-27T08:41:32.584Z,14.90
2018-12-27T08:44:01.252Z,15.97
2018-12-27T08:46:29.806Z,16.77
2018-12-27T08:48:58.313Z,16.37
2018-12-27T08:51:26.801Z,16.40
2018-12-27T08:53:55.323Z,16.97
2018-12-27T08:56:23.907Z,16.83
2018-12-27T08:58:52.533Z,17.47
2018-12-27T09:01:21.093Z,17.00
2018-12-27T09:03:49.606Z,16.43
2018-12-27T09:06:18.105Z,15.47
2018-12-27T09:08:46.821Z,16.00
2018-12-27T09:11:15.585Z,15.93
2018-12-27T09:13:44.304Z,15.60
2018-12-27T09:16:12.857Z,15.07
2018-12-27T09:18:41.473Z,16.03
2018-12-27T09:21:09.969Z,16.93
2018-12-27T09:23:38.593Z,15.53
2018-12-27T09:26:07.242Z,16.63
2018-12-27T09:28:35.829Z,17.37
2018-12-27T09:31:04.412Z,17.40
2018-12-27T09:33:32.973Z,18.23
2018-12-27T09:36:01.490Z,17.60
2018-12-27T09:38:30.054Z,17.47
2018-12-27T09:40:58.560Z,17.43
2018-12-27T09:43:27.132Z,16.03
2018-12-27T09:45:55.704Z,17.27
2018-12-27T09:48:24.203Z,15.87
2018-12-27T09:50:52.793Z,14.53
2018-12-27T09:53:21.376Z,14.53
2018-12-27T09:55:49.961Z,14.93
2018-12-27T09:58:18.463Z,13.33
2018-12-27T10:00:47.050Z,12.60
2018-12-27T10:03:15.627Z,13.53
2018-12-27T10:05:44.209Z,13.47
2018-12-27T10:08:12.809Z,12.53
2018-12-27T10:10:41.393Z,11.50
2018-12-27T10:13:09.895Z,11.27
2018-12-27T10:15:38.490Z,11.33
2018-12-27T10:18:06.995Z,11.17
2018-12-27T10:20:35.585Z,11.77
2018-12-27T10:23:04.137Z,11.57
2018-12-27T10:25:32.649Z,11.47
2018-12-27T10:28:01.155Z,10.87
2018-12-27T10:30:29.735Z,11.90
2018-12-27T10:32:58.221Z,10.87
2018-12-27T10:35:26.807Z,9.30
2018-12-27T10:37:55.370Z,10.73
2018-12-27T10:40:23.877Z,10.00
2018-12-27T10:42:52.438Z,10.30
2018-12-27T10:45:21.021Z,9.57
2018-12-27T10:47:49.585Z,9.00
2018-12-27T10:50:21.072Z,10.10
2018-12-27T10:52:50.911Z,10.13
2018-12-27T10:55:19.493Z,9.50
2018-12-27T10:57:48.121Z,9.27
2018-12-27T11:00:16.740Z,10.23
2018-12-27T11:02:45.282Z,9.67
2018-12-27T11:05:13.784Z,9.40
2018-12-27T11:07:42.355Z,8.90
2018-12-27T11:10:11.401Z,8.80
2018-12-27T11:12:40.073Z,8.70
2018-12-27T11:15:08.763Z,8.33
2018-12-27T11:17:37.318Z,8.63
2018-12-27T11:20:06.180Z,9.07
2018-12-27T11:22:34.786Z,8.60
2018-12-27T11:25:03.325Z,8.73
2018-12-27T11:27:31.910Z,8.20
2018-12-27T11:30:00.497Z,8.57
2018-12-27T11:32:28.990Z,8.87
2018-12-27T11:34:57.553Z,9.50
2018-12-27T11:37:26.062Z,9.27
2018-12-27T11:39:54.688Z,8.53
2018-12-27T11:42:23.237Z,8.43
2018-12-27T11:44:51.725Z,9.27
2018-12-27T11:47:20.874Z,9.17
2018-12-27T11:49:49.433Z,8.57
2018-12-27T11:52:17.941Z,8.50
2018-12-27T11:54:46.529Z,9.57
2018-12-27T11:57:15.074Z,9.43
2018-12-27T11:59:43.598Z,9.33
2018-12-27T12:02:12.182Z,8.83
2018-12-27T12:04:40.669Z,9.03
2018-12-27T12:07:09.253Z,9.90
2018-12-27T12:09:37.818Z,8.40
2018-12-27T12:12:06.421Z,9.70
2018-12-27T12:14:34.989Z,8.37
2018-12-27T12:17:03.602Z,8.80
2018-12-27T12:19:32.158Z,8.63
2018-12-27T12:22:00.801Z,8.73
2018-12-27T12:24:29.282Z,9.13
2018-12-27T12:26:57.829Z,8.73
2018-12-27T12:29:26.397Z,8.90
2018-12-27T12:31:54.982Z,8.70
2018-12-27T12:34:23.559Z,8.27
2018-12-27T12:36:52.370Z,8.57
2018-12-27T12:39:21.080Z,8.93
2018-12-27T12:41:49.761Z,7.67
2018-12-27T12:44:18.325Z,10.13
2018-12-27T12:46:46.829Z,8.67
2018-12-27T12:49:15.381Z,8.70
2018-12-27T12:51:43.996Z,9.13
2018-12-27T12:54:12.545Z,8.30
2018-12-27T12:56:41.622Z,8.67
2018-12-27T12:59:10.205Z,8.97
2018-12-27T13:01:38.709Z,8.77
2018-12-27T13:04:07.224Z,8.00
2018-12-27T13:06:35.783Z,8.07
2018-12-27T13:09:06.383Z,8.67
2018-12-27T13:11:35.016Z,8.93
2018-12-27T13:14:03.526Z,8.73
2018-12-27T13:16:32.106Z,8.57
2018-12-27T13:19:00.589Z,8.37
2018-12-27T13:21:32.990Z,8.17
2018-12-27T13:24:01.474Z,8.63
2018-12-27T13:26:29.992Z,9.10
2018-12-27T13:28:58.578Z,10.93
2018-12-27T13:31:27.157Z,9.80
2018-12-27T13:33:55.721Z,12.23
2018-12-27T13:36:25.563Z,10.73
2018-12-27T13:38:54.190Z,8.90
2018-12-27T13:41:22.739Z,9.57
2018-12-27T13:43:51.310Z,9.60
2018-12-27T13:46:19.917Z,9.37
2018-12-27T13:48:48.477Z,10.03
2018-12-27T13:51:17.131Z,10.70
2018-12-27T13:53:45.694Z,10.47
2018-12-27T13:56:14.262Z,10.70
2018-12-27T13:58:42.788Z,11.27
2018-12-27T14:01:13.073Z,11.13
2018-12-27T14:03:41.565Z,9.63
2018-12-27T14:06:10.136Z,9.30
2018-12-27T14:08:38.642Z,9.83
2018-12-27T14:11:07.209Z,10.23
2018-12-27T14:13:35.714Z,9.10
2018-12-27T14:16:04.207Z,10.10
2018-12-27T14:18:32.784Z,9.93
2018-12-27T14:21:01.345Z,9.67
2018-12-27T14:23:30.098Z,9.67
2018-12-27T14:25:58.658Z,8.47
2018-12-27T14:28:27.175Z,10.03
2018-12-27T14:30:55.802Z,9.60
2018-12-27T14:33:24.325Z,10.87
2018-12-27T14:35:52.874Z,10.93
2018-12-27T14:38:21.413Z,10.20
2018-12-27T14:40:49.913Z,9.90
2018-12-27T14:43:18.490Z,10.87
2018-12-27T14:45:46.981Z,11.90
2018-12-27T14:48:15.561Z,11.33
2018-12-27T14:50:44.127Z,12.10
2018-12-27T14:53:12.716Z,11.77
2018-12-27T14:55:41.297Z,11.83
2018-12-27T14:58:09.898Z,11.07
2018-12-27T15:00:38.480Z,10.93
2018-12-27T15:03:07.056Z,12.00
2018-12-27T15:05:35.547Z,11.43
2018-12-27T15:08:04.215Z,11.03
2018-12-27T15:10:32.793Z,10.97
2018-12-27T15:13:01.375Z,11.27
2018-12-27T15:15:29.944Z,11.97
2018-12-27T15:17:58.594Z,10.67
2018-12-27T15:20:27.105Z,11.67
2018-12-27T15:22:55.676Z,11.70
2018-12-27T15:25:24.181Z,11.57
2018-12-27T15:27:52.779Z,11.40
2018-12-27T15:30:21.354Z,11.80
2018-12-27T15:32:49.878Z,12.77
2018-12-27T15:35:18.437Z,12.07
2018-12-27T15:37:47.018Z,12.80
2018-12-27T15:40:15.509Z,12.07
2018-12-27T15:42:44.105Z,11.23
2018-12-27T15:45:12.606Z,12.07
2018-12-27T15:47:41.185Z,12.03
2018-12-27T15:50:09.802Z,12.17
2018-12-27T15:52:38.413Z,11.80
2018-12-27T15:55:06.974Z,11.57
2018-12-27T15:57:35.563Z,11.80
2018-12-27T16:00:05.771Z,12.07
2018-12-27T16:02:34.356Z,12.20
2018-12-27T16:05:02.920Z,12.80
2018-12-27T16:07:31.454Z,12.63
2018-12-27T16:10:00.033Z,13.43
2018-12-27T16:12:28.614Z,12.67
2018-12-27T16:14:57.106Z,13.37
2018-12-27T16:17:25.673Z,14.47
2018-12-27T16:19:54.219Z,13.77
2018-12-27T16:22:22.851Z,13.97
2018-12-27T16:24:51.372Z,14.83
2018-12-27T16:27:21.467Z,15.63
2018-12-27T16:29:50.060Z,14.47
2018-12-27T16:32:18.560Z,15.47
2018-12-27T16:34:47.141Z,16.03
2018-12-27T16:37:15.649Z,15.53
2018-12-27T16:39:44.370Z,15.43
2018-12-27T16:42:12.938Z,13.37
2018-12-27T16:44:41.478Z,13.83
2018-12-27T16:47:10.113Z,14.93
2018-12-27T16:49:38.726Z,13.50
2018-12-27T16:52:07.282Z,15.80
2018-12-27T16:54:35.870Z,15.17
2018-12-27T16:57:04.450Z,14.90
2018-12-27T16:59:33.217Z,14.03
2018-12-27T17:02:01.706Z,14.03
2018-12-27T17:04:30.339Z,14.17
2018-12-27T17:06:58.881Z,14.30
2018-12-27T17:09:27.512Z,15.70
2018-12-27T17:11:56.001Z,16.70
2018-12-27T17:14:24.513Z,17.93
2018-12-27T17:16:53.078Z,15.87
2018-12-27T17:19:21.597Z,16.00
2018-12-27T17:21:50.082Z,16.40
2018-12-27T17:24:18.688Z,18.20
2018-12-27T17:26:47.351Z,16.73
2018-12-27T17:29:15.921Z,14.73
2018-12-27T17:31:44.655Z,14.70
2018-12-27T17:34:13.246Z,14.63
2018-12-27T17:36:41.742Z,13.67
2018-12-27T17:39:10.327Z,12.93
2018-12-27T17:41:38.893Z,14.20
2018-12-27T17:44:07.401Z,14.57
2018-12-27T17:46:35.889Z,14.97
2018-12-27T17:49:04.381Z,13.93
2018-12-27T17:51:32.980Z,13.90
2018-12-27T17:54:01.613Z,14.70
2018-12-27T17:56:30.121Z,14.77
2018-12-27T17:58:58.693Z,15.17
2018-12-27T18:01:27.294Z,15.43
2018-12-27T18:03:55.877Z,14.77
2018-12-27T18:06:24.453Z,14.73
2018-12-27T18:08:52.969Z,26.33
2018-12-27T18:11:21.581Z,18.27
2018-12-27T18:13:50.077Z,17.47
2018-12-27T18:16:18.662Z,16.63
2018-12-27T18:18:47.231Z,18.27
2018-12-27T18:21:15.781Z,18.90
2018-12-27T18:23:44.393Z,18.57
2018-12-27T18:26:12.951Z,17.50
2018-12-27T18:28:41.513Z,19.23
2018-12-27T18:31:10.166Z,18.83
2018-12-27T18:33:38.727Z,17.63
2018-12-27T18:36:07.318Z,17.67
2018-12-27T18:38:35.882Z,19.70
2018-12-27T18:41:04.391Z,18.40
2018-12-27T18:43:32.877Z,18.43
2018-12-27T18:46:01.410Z,17.80
2018-12-27T18:48:29.983Z,18.97
2018-12-27T18:50:58.538Z,20.53
2018-12-27T18:53:31.000Z,20.43
2018-12-27T18:55:59.581Z,21.17
2018-12-27T18:58:28.086Z,20.43
2018-12-27T19:00:58.190Z,22.50
2018-12-27T19:03:26.777Z,21.33
2018-12-27T19:05:55.457Z,20.23
2018-12-27T19:08:23.976Z,20.90
2018-12-27T19:11:28.378Z,21.30
2018-12-27T19:13:56.978Z,20.87
2018-12-27T19:16:25.716Z,21.03
2018-12-27T19:18:54.274Z,21.17
2018-12-27T19:21:22.917Z,20.60
2018-12-27T19:23:51.495Z,20.27
2018-12-27T19:26:20.053Z,21.47
2018-12-27T19:28:48.558Z,20.37
2018-12-27T19:31:17.051Z,21.23
2018-12-27T19:33:45.632Z,20.57
2018-12-27T19:36:14.128Z,22.10
2018-12-27T19:38:42.645Z,20.27
2018-12-27T19:41:11.213Z,21.67
2018-12-27T19:43:39.725Z,19.83
2018-12-27T19:46:08.288Z,21.23
2018-12-27T19:48:36.817Z,21.00
2018-12-27T19:51:05.311Z,19.27
2018-12-27T19:53:34.677Z,20.27
2018-12-27T19:56:03.237Z,21.27
2018-12-27T19:58:31.890Z,22.10
2018-12-27T20:01:00.452Z,21.60
2018-12-27T20:03:29.035Z,22.00
2018-12-27T20:05:57.677Z,21.93
2018-12-27T20:08:26.188Z,21.50
2018-12-27T20:10:54.703Z,21.27
2018-12-27T20:13:23.321Z,18.60
2018-12-27T20:15:51.895Z,20.63
2018-12-27T20:18:20.401Z,19.87
2018-12-27T20:20:49.010Z,20.20
2018-12-27T20:23:17.517Z,20.43
2018-12-27T20:25:46.085Z,21.13
2018-12-27T20:28:14.705Z,21.03
2018-12-27T20:30:43.375Z,21.20
2018-12-27T20:33:11.974Z,20.07
2018-12-27T20:35:40.521Z,22.93
2018-12-27T20:38:09.026Z,25.30
2018-12-27T20:40:37.544Z,21.53
2018-12-27T20:43:06.104Z,21.57
2018-12-27T20:45:34.696Z,21.50
2018-12-27T20:48:03.734Z,21.60
2018-12-27T20:50:32.318Z,22.03
2018-12-27T20:53:00.893Z,20.87
2018-12-27T20:55:29.550Z,21.40
2018-12-27T20:57:58.148Z,22.13
2018-12-27T21:00:26.756Z,21.47
2018-12-27T21:02:55.315Z,23.83
2018-12-27T21:05:23.906Z,22.30
2018-12-27T21:07:52.389Z,20.73
2018-12-27T21:10:20.974Z,20.23
2018-12-27T21:12:49.477Z,20.93
2018-12-27T21:15:18.086Z,20.90
2018-12-27T21:17:46.731Z,20.83
2018-12-27T21:20:15.321Z,20.00
2018-12-27T21:22:43.817Z,21.37
2018-12-27T21:25:12.474Z,21.40
2018-12-27T21:27:41.029Z,20.37
2018-12-27T21:30:09.612Z,21.17
2018-12-27T21:32:38.187Z,19.33
2018-12-27T21:35:06.795Z,20.80
2018-12-27T21:37:35.360Z,22.40
2018-12-27T21:40:05.429Z,23.50
2018-12-27T21:42:34.009Z,22.57
2018-12-27T21:45:03.106Z,23.53
2018-12-27T21:47:31.677Z,23.07
2018-12-27T21:50:00.181Z,24.30
2018-12-27T21:52:28.756Z,23.87
2018-12-27T21:54:57.325Z,23.13
2018-12-27T21:57:26.889Z,26.00
2018-12-27T21:59:55.456Z,23.77
2018-12-27T22:02:24.058Z,24.33
2018-12-27T22:04:52.617Z,23.77
2018-12-27T22:07:22.672Z,24.73
2018-12-27T22:09:51.235Z,27.50
2018-12-27T22:12:19.885Z,24.23
2018-12-27T22:14:48.583Z,22.47
2018-12-27T22:17:17.584Z,23.63
2018-12-27T22:19:46.123Z,23.90
2018-12-27T22:22:14.714Z,23.07
2018-12-27T22:24:43.222Z,24.30
2018-12-27T22:27:11.809Z,24.47
2018-12-27T22:29:40.373Z,23.77
2018-12-27T22:32:08.892Z,22.67
2018-12-27T22:34:37.471Z,23.47
2018-12-27T22:37:05.982Z,22.60
2018-12-27T22:39:34.559Z,21.60
2018-12-27T22:42:03.145Z,23.87
2018-12-27T22:44:31.794Z,22.33
2018-12-27T22:47:00.385Z,22.37
2018-12-27T22:49:28.955Z,22.80
2018-12-27T22:51:57.528Z,22.33
2018-12-27T22:54:26.143Z,22.73
2018-12-27T22:56:54.766Z,22.00
2018-12-27T22:59:23.280Z,21.73
2018-12-27T23:01:51.914Z,23.40
2018-12-27T23:04:20.445Z,21.97
2018-12-27T23:06:49.022Z,22.40
2018-12-27T23:09:17.642Z,22.70
2018-12-27T23:11:46.209Z,21.93
2018-12-27T23:14:14.730Z,21.73
2018-12-27T23:16:43.218Z,21.90
2018-12-27T23:19:11.798Z,21.93
2018-12-27T23:21:40.281Z,22.73
2018-12-27T23:24:08.793Z,21.90
2018-12-27T23:26:37.532Z,21.03
2018-12-27T23:29:06.114Z,21.87
2018-12-27T23:31:34.749Z,21.23
2018-12-27T23:34:03.425Z,22.17
2018-12-27T23:36:31.977Z,21.57
2018-12-27T23:39:00.561Z,20.40
2018-12-27T23:41:29.062Z,22.40
2018-12-27T23:43:57.673Z,22.87
2018-12-27T23:46:26.165Z,22.17
2018-12-27T23:48:54.682Z,22.77
2018-12-27T23:51:23.237Z,23.93
2018-12-27T23:53:51.750Z,21.90
2018-12-27T23:56:20.459Z,23.20
2018-12-27T23:58:49.014Z,23.53
